sensor_id;sensor_type;location;lat;lon;timestamp;temperature;humidity
11089;DHT22;5598;48.648;8.908;2023-07-31T00:01:10;15.70;98.60
11089;DHT22;5598;48.648;8.908;2023-07-31T00:03:36;15.50;99.00
11089;DHT22;5598;48.648;8.908;2023-07-31T00:06:03;15.50;99.20
11089;DHT22;5598;48.648;8.908;2023-07-31T00:08:31;15.50;99.40
11089;DHT22;5598;48.648;8.908;2023-07-31T00:10:58;15.50;99.50
11089;DHT22;5598;48.648;8.908;2023-07-31T00:13:25;15.40;99.40
11089;DHT22;5598;48.648;8.908;2023-07-31T00:15:51;15.30;99.70
11089;DHT22;5598;48.648;8.908;2023-07-31T00:18:18;15.30;99.90
11089;DHT22;5598;48.648;8.908;2023-07-31T00:20:45;15.20;99.90
11089;DHT22;5598;48.648;8.908;2023-07-31T00:23:12;15.20;99.90
11089;DHT22;5598;48.648;8.908;2023-07-31T00:25:41;15.30;99.90
11089;DHT22;5598;48.648;8.908;2023-07-31T00:28:08;15.20;99.90
11089;DHT22;5598;48.648;8.908;2023-07-31T00:30:34;15.20;99.90
11089;DHT22;5598;48.648;8.908;2023-07-31T00:33:01;15.20;99.90
11089;DHT22;5598;48.648;8.908;2023-07-31T00:35:28;15.10;99.90
11089;DHT22;5598;48.648;8.908;2023-07-31T00:37:56;15.10;99.90
11089;DHT22;5598;48.648;8.908;2023-07-31T00:40:22;15.10;99.90
11089;DHT22;5598;48.648;8.908;2023-07-31T00:42:50;15.10;99.90
11089;DHT22;5598;48.648;8.908;2023-07-31T00:45:17;15.10;99.90
11089;DHT22;5598;48.648;8.908;2023-07-31T00:47:44;15.00;99.90
11089;DHT22;5598;48.648;8.908;2023-07-31T00:50:11;15.00;99.90
11089;DHT22;5598;48.648;8.908;2023-07-31T00:52:38;15.10;99.90
11089;DHT22;5598;48.648;8.908;2023-07-31T00:55:05;15.10;99.90
11089;DHT22;5598;48.648;8.908;2023-07-31T00:57:32;15.10;99.90
11089;DHT22;5598;48.648;8.908;2023-07-31T01:00:01;15.10;99.90
11089;DHT22;5598;48.648;8.908;2023-07-31T01:02:28;15.00;99.90
11089;DHT22;5598;48.648;8.908;2023-07-31T01:04:56;15.00;99.90
11089;DHT22;5598;48.648;8.908;2023-07-31T01:07:30;15.00;99.90
11089;DHT22;5598;48.648;8.908;2023-07-31T01:10:02;15.00;99.90
11089;DHT22;5598;48.648;8.908;2023-07-31T01:12:31;14.90;99.90
11089;DHT22;5598;48.648;8.908;2023-07-31T01:15:07;15.00;99.90
11089;DHT22;5598;48.648;8.908;2023-07-31T01:17:36;14.90;99.90
11089;DHT22;5598;48.648;8.908;2023-07-31T01:20:05;14.90;99.90
11089;DHT22;5598;48.648;8.908;2023-07-31T01:22:46;14.80;99.90
11089;DHT22;5598;48.648;8.908;2023-07-31T01:25:27;14.80;99.90
11089;DHT22;5598;48.648;8.908;2023-07-31T01:28:03;14.80;99.90
11089;DHT22;5598;48.648;8.908;2023-07-31T01:30:33;14.70;99.90
11089;DHT22;5598;48.648;8.908;2023-07-31T01:33:01;14.70;99.90
11089;DHT22;5598;48.648;8.908;2023-07-31T01:35:33;14.60;99.90
11089;DHT22;5598;48.648;8.908;2023-07-31T01:38:00;14.50;99.90
11089;DHT22;5598;48.648;8.908;2023-07-31T01:40:27;14.50;99.90
11089;DHT22;5598;48.648;8.908;2023-07-31T01:42:54;14.50;99.90
11089;DHT22;5598;48.648;8.908;2023-07-31T01:45:22;14.40;99.90
11089;DHT22;5598;48.648;8.908;2023-07-31T01:47:48;14.50;99.90
11089;DHT22;5598;48.648;8.908;2023-07-31T01:50:15;14.50;99.90
11089;DHT22;5598;48.648;8.908;2023-07-31T01:52:42;14.50;99.90
11089;DHT22;5598;48.648;8.908;2023-07-31T01:55:09;14.40;99.90
11089;DHT22;5598;48.648;8.908;2023-07-31T01:57:36;14.40;99.90
11089;DHT22;5598;48.648;8.908;2023-07-31T02:00:04;14.30;99.90
11089;DHT22;5598;48.648;8.908;2023-07-31T02:02:33;14.40;99.90
11089;DHT22;5598;48.648;8.908;2023-07-31T02:05:00;14.40;99.90
11089;DHT22;5598;48.648;8.908;2023-07-31T02:07:26;14.40;99.90
11089;DHT22;5598;48.648;8.908;2023-07-31T02:09:54;14.30;99.90
11089;DHT22;5598;48.648;8.908;2023-07-31T02:12:21;14.30;99.90
11089;DHT22;5598;48.648;8.908;2023-07-31T02:14:48;14.30;99.90
11089;DHT22;5598;48.648;8.908;2023-07-31T02:17:14;14.30;99.90
11089;DHT22;5598;48.648;8.908;2023-07-31T02:19:43;14.30;99.90
11089;DHT22;5598;48.648;8.908;2023-07-31T02:22:09;14.30;99.90
11089;DHT22;5598;48.648;8.908;2023-07-31T02:24:36;14.50;99.90
11089;DHT22;5598;48.648;8.908;2023-07-31T02:27:03;14.30;99.90
11089;DHT22;5598;48.648;8.908;2023-07-31T02:29:30;14.20;99.90
11089;DHT22;5598;48.648;8.908;2023-07-31T02:31:57;14.10;99.90
11089;DHT22;5598;48.648;8.908;2023-07-31T02:34:24;14.10;99.90
11089;DHT22;5598;48.648;8.908;2023-07-31T02:36:52;14.10;99.90
11089;DHT22;5598;48.648;8.908;2023-07-31T02:39:18;14.10;99.90
11089;DHT22;5598;48.648;8.908;2023-07-31T02:41:46;14.00;99.90
11089;DHT22;5598;48.648;8.908;2023-07-31T02:44:12;14.00;99.90
11089;DHT22;5598;48.648;8.908;2023-07-31T02:46:39;13.90;99.90
11089;DHT22;5598;48.648;8.908;2023-07-31T02:49:06;13.90;99.90
11089;DHT22;5598;48.648;8.908;2023-07-31T02:51:33;13.90;99.90
11089;DHT22;5598;48.648;8.908;2023-07-31T02:54:01;13.90;99.90
11089;DHT22;5598;48.648;8.908;2023-07-31T02:56:28;13.90;99.90
11089;DHT22;5598;48.648;8.908;2023-07-31T02:58:54;13.90;99.90
11089;DHT22;5598;48.648;8.908;2023-07-31T03:01:21;13.80;99.90
11089;DHT22;5598;48.648;8.908;2023-07-31T03:03:48;13.80;99.90
11089;DHT22;5598;48.648;8.908;2023-07-31T03:06:15;13.80;99.90
11089;DHT22;5598;48.648;8.908;2023-07-31T03:08:41;13.70;99.90
11089;DHT22;5598;48.648;8.908;2023-07-31T03:11:09;13.70;99.90
11089;DHT22;5598;48.648;8.908;2023-07-31T03:13:36;13.80;99.90
11089;DHT22;5598;48.648;8.908;2023-07-31T03:16:03;13.70;99.90
11089;DHT22;5598;48.648;8.908;2023-07-31T03:18:30;13.70;99.90
11089;DHT22;5598;48.648;8.908;2023-07-31T03:20:57;13.70;99.90
11089;DHT22;5598;48.648;8.908;2023-07-31T03:23:24;13.70;99.90
11089;DHT22;5598;48.648;8.908;2023-07-31T03:25:57;13.70;99.90
11089;DHT22;5598;48.648;8.908;2023-07-31T03:28:26;13.80;99.90
11089;DHT22;5598;48.648;8.908;2023-07-31T03:30:53;13.80;99.90
11089;DHT22;5598;48.648;8.908;2023-07-31T03:33:20;13.80;99.90
11089;DHT22;5598;48.648;8.908;2023-07-31T03:35:47;13.80;99.90
11089;DHT22;5598;48.648;8.908;2023-07-31T03:38:13;13.80;99.90
11089;DHT22;5598;48.648;8.908;2023-07-31T03:40:40;13.80;99.90
11089;DHT22;5598;48.648;8.908;2023-07-31T03:43:07;13.70;99.90
11089;DHT22;5598;48.648;8.908;2023-07-31T03:45:35;13.80;99.90
11089;DHT22;5598;48.648;8.908;2023-07-31T03:48:03;13.80;99.90
11089;DHT22;5598;48.648;8.908;2023-07-31T03:50:30;13.70;99.90
11089;DHT22;5598;48.648;8.908;2023-07-31T03:52:57;13.70;99.90
11089;DHT22;5598;48.648;8.908;2023-07-31T03:55:23;13.70;99.90
11089;DHT22;5598;48.648;8.908;2023-07-31T03:57:50;13.80;99.90
11089;DHT22;5598;48.648;8.908;2023-07-31T04:00:17;13.80;99.90
11089;DHT22;5598;48.648;8.908;2023-07-31T04:02:45;13.90;99.90
11089;DHT22;5598;48.648;8.908;2023-07-31T04:05:12;13.90;99.90
11089;DHT22;5598;48.648;8.908;2023-07-31T04:07:39;14.00;99.90
11089;DHT22;5598;48.648;8.908;2023-07-31T04:10:06;14.10;99.90
11089;DHT22;5598;48.648;8.908;2023-07-31T04:12:33;14.10;99.90
11089;DHT22;5598;48.648;8.908;2023-07-31T04:15:00;14.00;99.90
11089;DHT22;5598;48.648;8.908;2023-07-31T04:17:26;14.00;99.90
11089;DHT22;5598;48.648;8.908;2023-07-31T04:19:54;14.10;99.90
11089;DHT22;5598;48.648;8.908;2023-07-31T04:22:21;14.20;99.90
11089;DHT22;5598;48.648;8.908;2023-07-31T04:24:48;14.20;99.90
11089;DHT22;5598;48.648;8.908;2023-07-31T04:27:15;14.20;99.90
11089;DHT22;5598;48.648;8.908;2023-07-31T04:29:42;14.40;99.90
11089;DHT22;5598;48.648;8.908;2023-07-31T04:32:11;14.20;99.90
11089;DHT22;5598;48.648;8.908;2023-07-31T04:34:38;14.30;99.90
11089;DHT22;5598;48.648;8.908;2023-07-31T04:37:06;14.40;99.90
11089;DHT22;5598;48.648;8.908;2023-07-31T04:39:33;14.40;99.90
11089;DHT22;5598;48.648;8.908;2023-07-31T04:41:59;14.50;99.90
11089;DHT22;5598;48.648;8.908;2023-07-31T04:44:26;14.60;99.90
11089;DHT22;5598;48.648;8.908;2023-07-31T04:46:53;14.60;99.90
11089;DHT22;5598;48.648;8.908;2023-07-31T04:49:20;14.60;99.90
11089;DHT22;5598;48.648;8.908;2023-07-31T04:51:47;14.60;99.90
11089;DHT22;5598;48.648;8.908;2023-07-31T04:54:15;14.60;99.90
11089;DHT22;5598;48.648;8.908;2023-07-31T04:56:42;14.60;99.90
11089;DHT22;5598;48.648;8.908;2023-07-31T04:59:09;14.60;99.90
11089;DHT22;5598;48.648;8.908;2023-07-31T05:01:36;14.60;99.90
11089;DHT22;5598;48.648;8.908;2023-07-31T05:04:03;14.70;99.90
11089;DHT22;5598;48.648;8.908;2023-07-31T05:06:29;14.70;99.90
11089;DHT22;5598;48.648;8.908;2023-07-31T05:08:56;14.70;99.90
11089;DHT22;5598;48.648;8.908;2023-07-31T05:11:24;14.70;99.90
11089;DHT22;5598;48.648;8.908;2023-07-31T05:13:51;14.80;99.90
11089;DHT22;5598;48.648;8.908;2023-07-31T05:16:18;14.80;99.90
11089;DHT22;5598;48.648;8.908;2023-07-31T05:18:45;14.80;99.90
11089;DHT22;5598;48.648;8.908;2023-07-31T05:21:11;14.80;99.90
11089;DHT22;5598;48.648;8.908;2023-07-31T05:23:38;14.90;99.90
11089;DHT22;5598;48.648;8.908;2023-07-31T05:26:05;15.00;99.90
11089;DHT22;5598;48.648;8.908;2023-07-31T05:28:35;15.00;99.90
11089;DHT22;5598;48.648;8.908;2023-07-31T05:31:02;15.10;99.90
11089;DHT22;5598;48.648;8.908;2023-07-31T05:33:29;15.10;99.90
11089;DHT22;5598;48.648;8.908;2023-07-31T05:35:56;15.10;99.90
11089;DHT22;5598;48.648;8.908;2023-07-31T05:38:23;15.20;99.90
11089;DHT22;5598;48.648;8.908;2023-07-31T05:40:50;15.20;99.90
11089;DHT22;5598;48.648;8.908;2023-07-31T05:43:16;15.40;99.90
11089;DHT22;5598;48.648;8.908;2023-07-31T05:45:44;15.40;99.90
11089;DHT22;5598;48.648;8.908;2023-07-31T05:48:11;15.50;99.90
11089;DHT22;5598;48.648;8.908;2023-07-31T05:50:38;15.60;99.90
11089;DHT22;5598;48.648;8.908;2023-07-31T05:53:05;15.60;99.90
11089;DHT22;5598;48.648;8.908;2023-07-31T05:55:33;15.80;99.90
11089;DHT22;5598;48.648;8.908;2023-07-31T05:58:00;15.80;99.90
11089;DHT22;5598;48.648;8.908;2023-07-31T06:00:27;15.80;99.90
11089;DHT22;5598;48.648;8.908;2023-07-31T06:02:55;15.70;99.90
11089;DHT22;5598;48.648;8.908;2023-07-31T06:05:22;15.80;99.90
11089;DHT22;5598;48.648;8.908;2023-07-31T06:07:49;15.80;99.90
11089;DHT22;5598;48.648;8.908;2023-07-31T06:10:16;15.80;99.90
11089;DHT22;5598;48.648;8.908;2023-07-31T06:12:42;15.80;99.90
11089;DHT22;5598;48.648;8.908;2023-07-31T06:15:10;15.80;99.90
11089;DHT22;5598;48.648;8.908;2023-07-31T06:17:36;15.80;99.90
11089;DHT22;5598;48.648;8.908;2023-07-31T06:20:06;15.90;99.90
11089;DHT22;5598;48.648;8.908;2023-07-31T06:22:33;16.00;99.90
11089;DHT22;5598;48.648;8.908;2023-07-31T06:25:00;16.00;99.90
11089;DHT22;5598;48.648;8.908;2023-07-31T06:27:27;16.00;99.90
11089;DHT22;5598;48.648;8.908;2023-07-31T06:29:53;16.10;99.90
11089;DHT22;5598;48.648;8.908;2023-07-31T06:32:20;16.20;99.90
11089;DHT22;5598;48.648;8.908;2023-07-31T06:34:47;16.30;99.90
11089;DHT22;5598;48.648;8.908;2023-07-31T06:37:15;16.30;99.90
11089;DHT22;5598;48.648;8.908;2023-07-31T06:39:42;16.50;99.90
11089;DHT22;5598;48.648;8.908;2023-07-31T06:42:09;16.60;99.90
11089;DHT22;5598;48.648;8.908;2023-07-31T06:44:36;16.70;99.90
11089;DHT22;5598;48.648;8.908;2023-07-31T06:47:03;16.70;99.70
11089;DHT22;5598;48.648;8.908;2023-07-31T06:49:29;16.80;99.70
11089;DHT22;5598;48.648;8.908;2023-07-31T06:51:56;16.70;99.90
11089;DHT22;5598;48.648;8.908;2023-07-31T06:54:24;16.80;99.70
11089;DHT22;5598;48.648;8.908;2023-07-31T06:56:51;16.90;99.90
11089;DHT22;5598;48.648;8.908;2023-07-31T06:59:18;17.00;99.70
11089;DHT22;5598;48.648;8.908;2023-07-31T07:01:44;17.00;99.20
11089;DHT22;5598;48.648;8.908;2023-07-31T07:04:11;17.00;98.80
11089;DHT22;5598;48.648;8.908;2023-07-31T07:06:38;17.20;98.90
11089;DHT22;5598;48.648;8.908;2023-07-31T07:09:05;17.10;99.10
11089;DHT22;5598;48.648;8.908;2023-07-31T07:11:33;17.30;98.50
11089;DHT22;5598;48.648;8.908;2023-07-31T07:14:00;17.30;98.20
11089;DHT22;5598;48.648;8.908;2023-07-31T07:16:29;17.40;98.50
11089;DHT22;5598;48.648;8.908;2023-07-31T07:18:56;17.40;98.20
11089;DHT22;5598;48.648;8.908;2023-07-31T07:21:23;17.40;98.10
11089;DHT22;5598;48.648;8.908;2023-07-31T07:23:50;17.40;98.10
11089;DHT22;5598;48.648;8.908;2023-07-31T07:26:16;17.50;97.90
11089;DHT22;5598;48.648;8.908;2023-07-31T07:28:44;17.60;97.60
11089;DHT22;5598;48.648;8.908;2023-07-31T07:31:11;17.70;98.00
11089;DHT22;5598;48.648;8.908;2023-07-31T07:33:38;17.60;97.40
11089;DHT22;5598;48.648;8.908;2023-07-31T07:36:05;17.50;97.50
11089;DHT22;5598;48.648;8.908;2023-07-31T07:38:35;17.70;97.50
11089;DHT22;5598;48.648;8.908;2023-07-31T07:41:02;17.70;96.70
11089;DHT22;5598;48.648;8.908;2023-07-31T07:43:28;17.70;97.10
11089;DHT22;5598;48.648;8.908;2023-07-31T07:45:57;17.80;97.00
11089;DHT22;5598;48.648;8.908;2023-07-31T07:48:23;18.00;96.40
11089;DHT22;5598;48.648;8.908;2023-07-31T07:50:50;17.90;96.10
11089;DHT22;5598;48.648;8.908;2023-07-31T07:53:17;17.90;96.10
11089;DHT22;5598;48.648;8.908;2023-07-31T07:55:44;17.90;95.90
11089;DHT22;5598;48.648;8.908;2023-07-31T07:58:11;17.90;96.10
11089;DHT22;5598;48.648;8.908;2023-07-31T08:00:38;18.00;95.40
11089;DHT22;5598;48.648;8.908;2023-07-31T08:03:06;18.10;96.20
11089;DHT22;5598;48.648;8.908;2023-07-31T08:05:33;18.20;95.50
11089;DHT22;5598;48.648;8.908;2023-07-31T08:08:00;18.20;95.50
11089;DHT22;5598;48.648;8.908;2023-07-31T08:10:27;18.20;95.20
11089;DHT22;5598;48.648;8.908;2023-07-31T08:12:54;18.30;95.00
11089;DHT22;5598;48.648;8.908;2023-07-31T08:15:20;18.30;94.80
11089;DHT22;5598;48.648;8.908;2023-07-31T08:17:47;18.40;95.20
11089;DHT22;5598;48.648;8.908;2023-07-31T08:20:15;18.50;95.20
11089;DHT22;5598;48.648;8.908;2023-07-31T08:22:42;18.60;94.80
11089;DHT22;5598;48.648;8.908;2023-07-31T08:25:09;18.60;94.90
11089;DHT22;5598;48.648;8.908;2023-07-31T08:27:35;18.60;94.20
11089;DHT22;5598;48.648;8.908;2023-07-31T08:30:03;18.60;94.60
11089;DHT22;5598;48.648;8.908;2023-07-31T08:32:30;18.60;94.70
11089;DHT22;5598;48.648;8.908;2023-07-31T08:34:56;18.70;94.90
11089;DHT22;5598;48.648;8.908;2023-07-31T08:37:24;18.70;95.10
11089;DHT22;5598;48.648;8.908;2023-07-31T08:39:51;18.80;94.40
11089;DHT22;5598;48.648;8.908;2023-07-31T08:42:19;18.90;94.30
11089;DHT22;5598;48.648;8.908;2023-07-31T08:44:46;18.90;94.40
11089;DHT22;5598;48.648;8.908;2023-07-31T08:47:14;19.00;94.40
11089;DHT22;5598;48.648;8.908;2023-07-31T08:49:43;19.00;93.90
11089;DHT22;5598;48.648;8.908;2023-07-31T08:52:10;19.20;93.90
11089;DHT22;5598;48.648;8.908;2023-07-31T08:54:38;19.20;93.60
11089;DHT22;5598;48.648;8.908;2023-07-31T08:57:06;19.40;93.20
11089;DHT22;5598;48.648;8.908;2023-07-31T08:59:35;19.70;93.00
11089;DHT22;5598;48.648;8.908;2023-07-31T09:02:06;19.90;92.40
11089;DHT22;5598;48.648;8.908;2023-07-31T09:04:34;20.10;91.90
11089;DHT22;5598;48.648;8.908;2023-07-31T09:07:02;20.30;91.50
11089;DHT22;5598;48.648;8.908;2023-07-31T09:09:30;20.50;91.20
11089;DHT22;5598;48.648;8.908;2023-07-31T09:11:58;20.50;91.60
11089;DHT22;5598;48.648;8.908;2023-07-31T09:14:26;20.50;91.00
11089;DHT22;5598;48.648;8.908;2023-07-31T09:16:54;20.50;91.10
11089;DHT22;5598;48.648;8.908;2023-07-31T09:19:28;20.40;91.50
11089;DHT22;5598;48.648;8.908;2023-07-31T09:21:55;20.30;91.00
11089;DHT22;5598;48.648;8.908;2023-07-31T09:24:27;20.20;91.20
11089;DHT22;5598;48.648;8.908;2023-07-31T09:26:54;20.20;91.10
11089;DHT22;5598;48.648;8.908;2023-07-31T09:29:23;20.10;91.50
11089;DHT22;5598;48.648;8.908;2023-07-31T09:31:50;20.10;91.50
11089;DHT22;5598;48.648;8.908;2023-07-31T09:34:17;20.10;91.90
11089;DHT22;5598;48.648;8.908;2023-07-31T09:36:45;20.10;92.20
11089;DHT22;5598;48.648;8.908;2023-07-31T09:39:13;20.20;91.80
11089;DHT22;5598;48.648;8.908;2023-07-31T09:41:43;20.20;91.70
11089;DHT22;5598;48.648;8.908;2023-07-31T09:44:10;20.20;91.50
11089;DHT22;5598;48.648;8.908;2023-07-31T09:46:38;20.20;91.10
11089;DHT22;5598;48.648;8.908;2023-07-31T09:49:07;20.10;91.20
11089;DHT22;5598;48.648;8.908;2023-07-31T09:51:35;20.20;91.00
11089;DHT22;5598;48.648;8.908;2023-07-31T09:54:10;20.30;91.30
11089;DHT22;5598;48.648;8.908;2023-07-31T09:56:42;20.40;90.80
11089;DHT22;5598;48.648;8.908;2023-07-31T09:59:11;20.60;91.00
11089;DHT22;5598;48.648;8.908;2023-07-31T10:01:41;20.80;90.30
11089;DHT22;5598;48.648;8.908;2023-07-31T10:04:09;21.20;90.60
11089;DHT22;5598;48.648;8.908;2023-07-31T10:06:37;21.70;89.10
11089;DHT22;5598;48.648;8.908;2023-07-31T10:09:05;22.00;88.20
11089;DHT22;5598;48.648;8.908;2023-07-31T10:11:35;22.20;85.60
11089;DHT22;5598;48.648;8.908;2023-07-31T10:14:05;22.40;86.00
11089;DHT22;5598;48.648;8.908;2023-07-31T10:16:32;22.60;85.10
11089;DHT22;5598;48.648;8.908;2023-07-31T10:19:01;22.80;84.80
11089;DHT22;5598;48.648;8.908;2023-07-31T10:21:28;23.20;84.30
11089;DHT22;5598;48.648;8.908;2023-07-31T10:23:55;23.40;81.50
11089;DHT22;5598;48.648;8.908;2023-07-31T10:26:23;23.60;81.90
11089;DHT22;5598;48.648;8.908;2023-07-31T10:28:52;23.70;82.00
11089;DHT22;5598;48.648;8.908;2023-07-31T10:31:20;23.90;80.40
11089;DHT22;5598;48.648;8.908;2023-07-31T10:33:48;23.90;81.30
11089;DHT22;5598;48.648;8.908;2023-07-31T10:36:19;24.00;79.10
11089;DHT22;5598;48.648;8.908;2023-07-31T10:38:49;24.10;80.60
11089;DHT22;5598;48.648;8.908;2023-07-31T10:41:15;24.10;80.10
11089;DHT22;5598;48.648;8.908;2023-07-31T10:43:42;24.20;79.00
11089;DHT22;5598;48.648;8.908;2023-07-31T10:46:12;24.10;79.70
11089;DHT22;5598;48.648;8.908;2023-07-31T10:48:39;24.20;80.30
11089;DHT22;5598;48.648;8.908;2023-07-31T10:51:08;24.40;77.90
11089;DHT22;5598;48.648;8.908;2023-07-31T10:53:38;24.50;78.60
11089;DHT22;5598;48.648;8.908;2023-07-31T10:56:06;24.60;78.00
11089;DHT22;5598;48.648;8.908;2023-07-31T10:58:33;24.60;77.70
11089;DHT22;5598;48.648;8.908;2023-07-31T11:01:01;24.40;77.30
11089;DHT22;5598;48.648;8.908;2023-07-31T11:03:41;24.10;79.40
11089;DHT22;5598;48.648;8.908;2023-07-31T11:06:09;23.80;80.00
11089;DHT22;5598;48.648;8.908;2023-07-31T11:08:42;23.70;79.70
11089;DHT22;5598;48.648;8.908;2023-07-31T11:11:10;23.60;78.60
11089;DHT22;5598;48.648;8.908;2023-07-31T11:13:42;23.40;78.70
11089;DHT22;5598;48.648;8.908;2023-07-31T11:16:10;23.30;80.00
11089;DHT22;5598;48.648;8.908;2023-07-31T11:18:39;23.20;82.10
11089;DHT22;5598;48.648;8.908;2023-07-31T11:21:07;23.00;80.20
11089;DHT22;5598;48.648;8.908;2023-07-31T11:23:38;22.80;82.40
11089;DHT22;5598;48.648;8.908;2023-07-31T11:26:06;22.70;82.50
11089;DHT22;5598;48.648;8.908;2023-07-31T11:28:34;22.60;82.60
11089;DHT22;5598;48.648;8.908;2023-07-31T11:31:01;22.60;82.50
11089;DHT22;5598;48.648;8.908;2023-07-31T11:33:28;22.60;81.40
11089;DHT22;5598;48.648;8.908;2023-07-31T11:35:55;22.40;82.30
11089;DHT22;5598;48.648;8.908;2023-07-31T11:38:22;22.40;82.00
11089;DHT22;5598;48.648;8.908;2023-07-31T11:40:51;22.20;83.90
11089;DHT22;5598;48.648;8.908;2023-07-31T11:43:19;22.10;83.30
11089;DHT22;5598;48.648;8.908;2023-07-31T11:45:47;22.00;84.30
11089;DHT22;5598;48.648;8.908;2023-07-31T11:48:21;22.00;82.20
11089;DHT22;5598;48.648;8.908;2023-07-31T11:50:49;21.90;85.20
11089;DHT22;5598;48.648;8.908;2023-07-31T11:53:19;21.90;85.70
11089;DHT22;5598;48.648;8.908;2023-07-31T11:55:47;21.90;85.20
11089;DHT22;5598;48.648;8.908;2023-07-31T11:58:16;21.80;84.60
11089;DHT22;5598;48.648;8.908;2023-07-31T12:00:44;21.80;85.80
11089;DHT22;5598;48.648;8.908;2023-07-31T12:03:11;21.80;84.40
11089;DHT22;5598;48.648;8.908;2023-07-31T12:05:38;21.70;85.20
11089;DHT22;5598;48.648;8.908;2023-07-31T12:08:09;21.70;85.30
11089;DHT22;5598;48.648;8.908;2023-07-31T12:10:37;21.70;83.80
11089;DHT22;5598;48.648;8.908;2023-07-31T12:13:07;21.50;84.10
11089;DHT22;5598;48.648;8.908;2023-07-31T12:15:39;21.50;85.80
11089;DHT22;5598;48.648;8.908;2023-07-31T12:18:08;21.60;87.10
11089;DHT22;5598;48.648;8.908;2023-07-31T12:20:39;21.70;87.50
11089;DHT22;5598;48.648;8.908;2023-07-31T12:23:07;21.70;86.70
11089;DHT22;5598;48.648;8.908;2023-07-31T12:25:34;21.80;87.90
11089;DHT22;5598;48.648;8.908;2023-07-31T12:28:05;21.80;87.10
11089;DHT22;5598;48.648;8.908;2023-07-31T12:30:39;21.90;87.20
11089;DHT22;5598;48.648;8.908;2023-07-31T12:33:07;22.00;87.20
11089;DHT22;5598;48.648;8.908;2023-07-31T12:35:41;22.20;87.20
11089;DHT22;5598;48.648;8.908;2023-07-31T12:38:08;22.30;86.20
11089;DHT22;5598;48.648;8.908;2023-07-31T12:40:37;22.30;85.30
11089;DHT22;5598;48.648;8.908;2023-07-31T12:43:04;22.70;85.70
11089;DHT22;5598;48.648;8.908;2023-07-31T12:45:30;22.90;85.80
11089;DHT22;5598;48.648;8.908;2023-07-31T12:47:59;23.00;86.10
11089;DHT22;5598;48.648;8.908;2023-07-31T12:50:26;23.10;83.10
11089;DHT22;5598;48.648;8.908;2023-07-31T12:52:54;23.00;83.50
11089;DHT22;5598;48.648;8.908;2023-07-31T12:55:21;23.20;82.00
11089;DHT22;5598;48.648;8.908;2023-07-31T12:57:48;23.20;81.80
11089;DHT22;5598;48.648;8.908;2023-07-31T13:00:15;23.20;83.40
11089;DHT22;5598;48.648;8.908;2023-07-31T13:02:42;23.20;85.10
11089;DHT22;5598;48.648;8.908;2023-07-31T13:05:10;23.50;82.00
11089;DHT22;5598;48.648;8.908;2023-07-31T13:07:38;23.60;83.90
11089;DHT22;5598;48.648;8.908;2023-07-31T13:10:06;23.70;82.80
11089;DHT22;5598;48.648;8.908;2023-07-31T13:12:33;23.70;85.70
11089;DHT22;5598;48.648;8.908;2023-07-31T13:15:00;23.70;84.40
11089;DHT22;5598;48.648;8.908;2023-07-31T13:17:27;23.60;83.50
11089;DHT22;5598;48.648;8.908;2023-07-31T13:19:54;23.60;85.80
11089;DHT22;5598;48.648;8.908;2023-07-31T13:22:22;23.50;85.70
11089;DHT22;5598;48.648;8.908;2023-07-31T13:24:49;23.50;85.10
11089;DHT22;5598;48.648;8.908;2023-07-31T13:27:15;23.50;85.60
11089;DHT22;5598;48.648;8.908;2023-07-31T13:29:44;23.50;84.50
11089;DHT22;5598;48.648;8.908;2023-07-31T13:32:11;23.60;84.80
11089;DHT22;5598;48.648;8.908;2023-07-31T13:34:37;23.80;82.40
11089;DHT22;5598;48.648;8.908;2023-07-31T13:37:04;23.70;83.20
11089;DHT22;5598;48.648;8.908;2023-07-31T13:39:33;23.70;82.40
11089;DHT22;5598;48.648;8.908;2023-07-31T13:42:01;23.70;83.70
11089;DHT22;5598;48.648;8.908;2023-07-31T13:44:28;23.70;82.20
11089;DHT22;5598;48.648;8.908;2023-07-31T13:46:55;23.70;82.50
11089;DHT22;5598;48.648;8.908;2023-07-31T13:49:22;23.70;81.10
11089;DHT22;5598;48.648;8.908;2023-07-31T13:51:49;23.60;80.10
11089;DHT22;5598;48.648;8.908;2023-07-31T13:54:15;23.50;79.40
11089;DHT22;5598;48.648;8.908;2023-07-31T13:56:44;23.50;79.00
11089;DHT22;5598;48.648;8.908;2023-07-31T13:59:11;23.40;79.80
11089;DHT22;5598;48.648;8.908;2023-07-31T14:01:40;23.30;79.70
11089;DHT22;5598;48.648;8.908;2023-07-31T14:04:07;23.20;79.60
11089;DHT22;5598;48.648;8.908;2023-07-31T14:06:34;23.10;81.20
11089;DHT22;5598;48.648;8.908;2023-07-31T14:09:00;23.00;80.00
11089;DHT22;5598;48.648;8.908;2023-07-31T14:11:28;23.00;81.10
11089;DHT22;5598;48.648;8.908;2023-07-31T14:13:56;22.90;80.40
11089;DHT22;5598;48.648;8.908;2023-07-31T14:16:23;23.00;80.10
11089;DHT22;5598;48.648;8.908;2023-07-31T14:18:50;22.90;80.50
11089;DHT22;5598;48.648;8.908;2023-07-31T14:21:19;22.80;79.00
11089;DHT22;5598;48.648;8.908;2023-07-31T14:23:46;22.70;79.60
11089;DHT22;5598;48.648;8.908;2023-07-31T14:26:13;22.60;79.50
11089;DHT22;5598;48.648;8.908;2023-07-31T14:28:39;22.50;79.70
11089;DHT22;5598;48.648;8.908;2023-07-31T14:31:08;22.40;79.80
11089;DHT22;5598;48.648;8.908;2023-07-31T14:33:34;22.40;80.90
11089;DHT22;5598;48.648;8.908;2023-07-31T14:36:02;22.40;81.20
11089;DHT22;5598;48.648;8.908;2023-07-31T14:38:28;22.50;81.50
11089;DHT22;5598;48.648;8.908;2023-07-31T14:40:56;22.50;81.50
11089;DHT22;5598;48.648;8.908;2023-07-31T14:43:22;22.50;81.90
11089;DHT22;5598;48.648;8.908;2023-07-31T14:45:49;22.70;82.30
11089;DHT22;5598;48.648;8.908;2023-07-31T14:48:18;22.70;83.50
11089;DHT22;5598;48.648;8.908;2023-07-31T14:50:45;22.80;80.70
11089;DHT22;5598;48.648;8.908;2023-07-31T14:53:11;22.90;82.00
11089;DHT22;5598;48.648;8.908;2023-07-31T14:55:38;22.80;83.10
11089;DHT22;5598;48.648;8.908;2023-07-31T14:58:05;22.70;81.70
11089;DHT22;5598;48.648;8.908;2023-07-31T15:00:32;22.80;81.80
11089;DHT22;5598;48.648;8.908;2023-07-31T15:02:59;22.80;81.90
11089;DHT22;5598;48.648;8.908;2023-07-31T15:05:27;22.70;81.20
11089;DHT22;5598;48.648;8.908;2023-07-31T15:07:54;22.70;80.50
11089;DHT22;5598;48.648;8.908;2023-07-31T15:10:20;22.80;83.10
11089;DHT22;5598;48.648;8.908;2023-07-31T15:12:47;22.70;83.20
11089;DHT22;5598;48.648;8.908;2023-07-31T15:15:15;22.70;83.10
11089;DHT22;5598;48.648;8.908;2023-07-31T15:17:42;22.80;82.90
11089;DHT22;5598;48.648;8.908;2023-07-31T15:20:10;22.80;82.80
11089;DHT22;5598;48.648;8.908;2023-07-31T15:22:38;22.80;82.00
11089;DHT22;5598;48.648;8.908;2023-07-31T15:25:06;22.80;83.00
11089;DHT22;5598;48.648;8.908;2023-07-31T15:27:33;22.80;83.40
11089;DHT22;5598;48.648;8.908;2023-07-31T15:30:00;22.70;82.90
11089;DHT22;5598;48.648;8.908;2023-07-31T15:32:28;22.80;82.80
11089;DHT22;5598;48.648;8.908;2023-07-31T15:34:55;22.80;80.80
11089;DHT22;5598;48.648;8.908;2023-07-31T15:37:21;22.80;81.20
11089;DHT22;5598;48.648;8.908;2023-07-31T15:39:50;22.70;81.60
11089;DHT22;5598;48.648;8.908;2023-07-31T15:42:16;22.70;81.60
11089;DHT22;5598;48.648;8.908;2023-07-31T15:44:43;22.60;81.60
11089;DHT22;5598;48.648;8.908;2023-07-31T15:47:10;22.60;82.10